sensor_id;sensor_type;location;lat;lon;timestamp;temperature;humidity
19180;DHT22;9722;48.754;8.868;2023-02-12T00:02:19;5.20;83.40
19180;DHT22;9722;48.754;8.868;2023-02-12T00:05:40;5.30;83.50
19180;DHT22;9722;48.754;8.868;2023-02-12T00:09:03;5.30;83.70
19180;DHT22;9722;48.754;8.868;2023-02-12T00:12:24;5.20;83.90
19180;DHT22;9722;48.754;8.868;2023-02-12T00:15:44;5.20;84.10
19180;DHT22;9722;48.754;8.868;2023-02-12T00:19:05;5.20;84.10
19180;DHT22;9722;48.754;8.868;2023-02-12T00:22:25;5.20;84.20
19180;DHT22;9722;48.754;8.868;2023-02-12T00:25:47;5.20;84.40
19180;DHT22;9722;48.754;8.868;2023-02-12T00:29:09;5.20;84.40
19180;DHT22;9722;48.754;8.868;2023-02-12T00:32:29;5.20;84.30
19180;DHT22;9722;48.754;8.868;2023-02-12T00:35:57;5.20;84.10
19180;DHT22;9722;48.754;8.868;2023-02-12T00:39:17;5.20;84.20
19180;DHT22;9722;48.754;8.868;2023-02-12T00:42:38;5.20;84.20
19180;DHT22;9722;48.754;8.868;2023-02-12T00:45:58;5.20;84.30
19180;DHT22;9722;48.754;8.868;2023-02-12T00:49:19;5.20;84.40
19180;DHT22;9722;48.754;8.868;2023-02-12T00:52:39;5.20;84.40
19180;DHT22;9722;48.754;8.868;2023-02-12T00:56:00;5.20;84.40
19180;DHT22;9722;48.754;8.868;2023-02-12T00:59:22;5.20;84.40
19180;DHT22;9722;48.754;8.868;2023-02-12T01:02:42;5.20;84.40
19180;DHT22;9722;48.754;8.868;2023-02-12T01:06:03;5.20;84.50
19180;DHT22;9722;48.754;8.868;2023-02-12T01:09:25;5.20;84.60
19180;DHT22;9722;48.754;8.868;2023-02-12T01:12:46;5.20;84.60
19180;DHT22;9722;48.754;8.868;2023-02-12T01:16:16;5.20;84.70
19180;DHT22;9722;48.754;8.868;2023-02-12T01:19:38;5.20;84.70
19180;DHT22;9722;48.754;8.868;2023-02-12T01:22:58;5.20;84.80
19180;DHT22;9722;48.754;8.868;2023-02-12T01:26:21;5.20;85.60
19180;DHT22;9722;48.754;8.868;2023-02-12T01:29:42;5.20;84.80
19180;DHT22;9722;48.754;8.868;2023-02-12T01:33:03;5.30;84.80
19180;DHT22;9722;48.754;8.868;2023-02-12T01:36:24;5.30;84.70
19180;DHT22;9722;48.754;8.868;2023-02-12T01:39:45;5.30;84.50
19180;DHT22;9722;48.754;8.868;2023-02-12T01:43:10;5.30;84.50
19180;DHT22;9722;48.754;8.868;2023-02-12T01:46:31;5.30;84.40
19180;DHT22;9722;48.754;8.868;2023-02-12T01:49:51;5.30;84.50
19180;DHT22;9722;48.754;8.868;2023-02-12T01:53:12;5.30;84.40
19180;DHT22;9722;48.754;8.868;2023-02-12T01:56:39;5.30;84.50
19180;DHT22;9722;48.754;8.868;2023-02-12T02:00:03;5.30;84.50
19180;DHT22;9722;48.754;8.868;2023-02-12T02:03:25;5.30;84.60
19180;DHT22;9722;48.754;8.868;2023-02-12T02:06:52;5.30;84.70
19180;DHT22;9722;48.754;8.868;2023-02-12T02:10:15;5.30;84.90
19180;DHT22;9722;48.754;8.868;2023-02-12T02:13:36;5.30;85.10
19180;DHT22;9722;48.754;8.868;2023-02-12T02:21:07;5.20;85.60
19180;DHT22;9722;48.754;8.868;2023-02-12T02:24:39;5.10;85.90
19180;DHT22;9722;48.754;8.868;2023-02-12T02:28:31;5.00;86.30
19180;DHT22;9722;48.754;8.868;2023-02-12T02:32:01;4.90;86.70
19180;DHT22;9722;48.754;8.868;2023-02-12T02:35:27;4.80;87.30
19180;DHT22;9722;48.754;8.868;2023-02-12T02:39:02;4.80;87.50
19180;DHT22;9722;48.754;8.868;2023-02-12T02:42:40;4.80;87.90
19180;DHT22;9722;48.754;8.868;2023-02-12T02:46:13;4.80;88.00
19180;DHT22;9722;48.754;8.868;2023-02-12T02:49:45;4.80;88.20
19180;DHT22;9722;48.754;8.868;2023-02-12T02:53:13;4.80;88.40
19180;DHT22;9722;48.754;8.868;2023-02-12T02:56:37;4.90;88.70
19180;DHT22;9722;48.754;8.868;2023-02-12T03:00:21;4.80;88.80
19180;DHT22;9722;48.754;8.868;2023-02-12T03:07:19;4.70;89.60
19180;DHT22;9722;48.754;8.868;2023-02-12T03:10:44;4.70;90.00
19180;DHT22;9722;48.754;8.868;2023-02-12T03:17:45;4.60;90.40
19180;DHT22;9722;48.754;8.868;2023-02-12T03:21:12;4.60;90.40
19180;DHT22;9722;48.754;8.868;2023-02-12T03:24:38;4.60;90.70
19180;DHT22;9722;48.754;8.868;2023-02-12T03:28:10;4.60;90.40
19180;DHT22;9722;48.754;8.868;2023-02-12T03:35:06;4.70;90.60
19180;DHT22;9722;48.754;8.868;2023-02-12T03:38:45;4.60;90.70
19180;DHT22;9722;48.754;8.868;2023-02-12T03:42:20;4.70;90.70
19180;DHT22;9722;48.754;8.868;2023-02-12T03:49:31;4.70;90.80
19180;DHT22;9722;48.754;8.868;2023-02-12T03:52:53;4.70;90.70
19180;DHT22;9722;48.754;8.868;2023-02-12T03:56:24;4.80;90.80
19180;DHT22;9722;48.754;8.868;2023-02-12T03:59:47;4.70;90.80
19180;DHT22;9722;48.754;8.868;2023-02-12T04:03:08;4.70;90.70
19180;DHT22;9722;48.754;8.868;2023-02-12T04:06:29;4.70;90.80
19180;DHT22;9722;48.754;8.868;2023-02-12T04:09:49;4.70;90.80
19180;DHT22;9722;48.754;8.868;2023-02-12T04:13:34;4.70;90.80
19180;DHT22;9722;48.754;8.868;2023-02-12T04:17:03;4.70;90.80
19180;DHT22;9722;48.754;8.868;2023-02-12T04:24:17;4.70;90.90
19180;DHT22;9722;48.754;8.868;2023-02-12T04:27:59;4.70;90.80
19180;DHT22;9722;48.754;8.868;2023-02-12T04:31:38;4.80;90.90
19180;DHT22;9722;48.754;8.868;2023-02-12T04:35:26;4.80;90.90
19180;DHT22;9722;48.754;8.868;2023-02-12T04:38:53;4.80;90.90
19180;DHT22;9722;48.754;8.868;2023-02-12T04:42:14;4.80;90.90
19180;DHT22;9722;48.754;8.868;2023-02-12T04:45:36;4.80;90.90
19180;DHT22;9722;48.754;8.868;2023-02-12T04:48:58;4.80;90.90
19180;DHT22;9722;48.754;8.868;2023-02-12T04:52:18;4.80;90.90
19180;DHT22;9722;48.754;8.868;2023-02-12T04:55:39;4.80;91.00
19180;DHT22;9722;48.754;8.868;2023-02-12T04:58:59;4.80;91.00
19180;DHT22;9722;48.754;8.868;2023-02-12T05:02:20;4.80;90.90
19180;DHT22;9722;48.754;8.868;2023-02-12T05:05:40;4.80;91.00
19180;DHT22;9722;48.754;8.868;2023-02-12T05:09:01;4.70;90.90
19180;DHT22;9722;48.754;8.868;2023-02-12T05:12:21;4.70;91.00
19180;DHT22;9722;48.754;8.868;2023-02-12T05:15:42;4.70;91.00
19180;DHT22;9722;48.754;8.868;2023-02-12T05:19:03;4.60;91.10
19180;DHT22;9722;48.754;8.868;2023-02-12T05:22:23;4.60;91.20
19180;DHT22;9722;48.754;8.868;2023-02-12T05:25:44;4.60;91.20
19180;DHT22;9722;48.754;8.868;2023-02-12T05:29:04;4.60;91.40
19180;DHT22;9722;48.754;8.868;2023-02-12T05:32:25;4.60;91.50
19180;DHT22;9722;48.754;8.868;2023-02-12T05:35:45;4.60;91.60
19180;DHT22;9722;48.754;8.868;2023-02-12T05:39:06;4.60;91.70
19180;DHT22;9722;48.754;8.868;2023-02-12T05:42:28;4.50;91.70
19180;DHT22;9722;48.754;8.868;2023-02-12T05:45:49;4.50;91.80
19180;DHT22;9722;48.754;8.868;2023-02-12T05:49:09;4.50;91.90
19180;DHT22;9722;48.754;8.868;2023-02-12T05:52:30;4.50;92.00
19180;DHT22;9722;48.754;8.868;2023-02-12T05:55:50;4.50;92.10
19180;DHT22;9722;48.754;8.868;2023-02-12T05:59:20;4.50;92.20
19180;DHT22;9722;48.754;8.868;2023-02-12T06:02:41;4.50;92.40
19180;DHT22;9722;48.754;8.868;2023-02-12T06:06:02;4.40;92.40
19180;DHT22;9722;48.754;8.868;2023-02-12T06:09:23;4.40;92.60
19180;DHT22;9722;48.754;8.868;2023-02-12T06:12:43;4.40;92.80
19180;DHT22;9722;48.754;8.868;2023-02-12T06:16:04;4.40;93.00
19180;DHT22;9722;48.754;8.868;2023-02-12T06:19:24;4.40;93.00
19180;DHT22;9722;48.754;8.868;2023-02-12T06:22:45;4.40;93.10
19180;DHT22;9722;48.754;8.868;2023-02-12T06:26:06;4.40;93.20
19180;DHT22;9722;48.754;8.868;2023-02-12T06:29:26;4.40;93.40
19180;DHT22;9722;48.754;8.868;2023-02-12T06:32:50;4.40;93.50
19180;DHT22;9722;48.754;8.868;2023-02-12T06:36:10;4.40;93.60
19180;DHT22;9722;48.754;8.868;2023-02-12T06:39:31;4.40;93.70
19180;DHT22;9722;48.754;8.868;2023-02-12T06:42:51;4.40;93.90
19180;DHT22;9722;48.754;8.868;2023-02-12T06:46:12;4.40;94.00
19180;DHT22;9722;48.754;8.868;2023-02-12T06:49:33;4.40;94.00
19180;DHT22;9722;48.754;8.868;2023-02-12T06:52:54;4.50;94.10
19180;DHT22;9722;48.754;8.868;2023-02-12T06:56:14;4.50;94.20
19180;DHT22;9722;48.754;8.868;2023-02-12T06:59:35;4.50;94.30
19180;DHT22;9722;48.754;8.868;2023-02-12T07:02:56;4.50;94.40
19180;DHT22;9722;48.754;8.868;2023-02-12T07:06:17;4.50;94.40
19180;DHT22;9722;48.754;8.868;2023-02-12T07:09:38;4.50;94.50
19180;DHT22;9722;48.754;8.868;2023-02-12T07:12:58;4.70;94.50
19180;DHT22;9722;48.754;8.868;2023-02-12T07:16:19;4.70;94.50
19180;DHT22;9722;48.754;8.868;2023-02-12T07:19:40;4.80;94.50
19180;DHT22;9722;48.754;8.868;2023-02-12T07:23:00;4.90;94.50
19180;DHT22;9722;48.754;8.868;2023-02-12T07:26:21;5.00;94.50
19180;DHT22;9722;48.754;8.868;2023-02-12T07:29:42;5.10;94.50
19180;DHT22;9722;48.754;8.868;2023-02-12T07:33:02;5.20;94.40
19180;DHT22;9722;48.754;8.868;2023-02-12T07:36:24;5.30;94.20
19180;DHT22;9722;48.754;8.868;2023-02-12T07:39:45;5.50;94.10
19180;DHT22;9722;48.754;8.868;2023-02-12T07:43:05;5.60;93.80
19180;DHT22;9722;48.754;8.868;2023-02-12T07:46:29;5.70;93.60
19180;DHT22;9722;48.754;8.868;2023-02-12T07:49:50;5.70;93.50
19180;DHT22;9722;48.754;8.868;2023-02-12T07:53:11;5.70;93.40
19180;DHT22;9722;48.754;8.868;2023-02-12T07:56:34;5.80;93.40
19180;DHT22;9722;48.754;8.868;2023-02-12T07:59:55;5.80;93.30
19180;DHT22;9722;48.754;8.868;2023-02-12T08:03:15;5.80;93.30
19180;DHT22;9722;48.754;8.868;2023-02-12T08:06:38;5.80;93.20
19180;DHT22;9722;48.754;8.868;2023-02-12T08:09:59;5.80;93.20
19180;DHT22;9722;48.754;8.868;2023-02-12T08:13:19;5.80;93.20
19180;DHT22;9722;48.754;8.868;2023-02-12T08:16:41;5.90;93.20
19180;DHT22;9722;48.754;8.868;2023-02-12T08:20:02;6.00;93.10
19180;DHT22;9722;48.754;8.868;2023-02-12T08:23:22;6.10;93.20
19180;DHT22;9722;48.754;8.868;2023-02-12T08:26:43;6.20;93.10
19180;DHT22;9722;48.754;8.868;2023-02-12T08:30:04;6.30;93.00
19180;DHT22;9722;48.754;8.868;2023-02-12T08:33:25;6.40;93.00
19180;DHT22;9722;48.754;8.868;2023-02-12T08:36:47;6.50;92.90
19180;DHT22;9722;48.754;8.868;2023-02-12T08:40:08;6.50;92.80
19180;DHT22;9722;48.754;8.868;2023-02-12T08:43:29;6.60;92.80
19180;DHT22;9722;48.754;8.868;2023-02-12T08:46:51;6.50;92.80
19180;DHT22;9722;48.754;8.868;2023-02-12T08:50:12;6.50;93.00
19180;DHT22;9722;48.754;8.868;2023-02-12T08:53:32;6.60;93.10
19180;DHT22;9722;48.754;8.868;2023-02-12T08:56:57;6.60;93.10
19180;DHT22;9722;48.754;8.868;2023-02-12T09:00:19;6.70;93.20
19180;DHT22;9722;48.754;8.868;2023-02-12T09:03:39;6.80;93.10
19180;DHT22;9722;48.754;8.868;2023-02-12T09:07:00;6.80;93.10
19180;DHT22;9722;48.754;8.868;2023-02-12T09:10:21;6.90;93.00
19180;DHT22;9722;48.754;8.868;2023-02-12T09:13:42;7.00;92.90
19180;DHT22;9722;48.754;8.868;2023-02-12T09:17:03;7.00;92.80
19180;DHT22;9722;48.754;8.868;2023-02-12T09:20:23;7.10;92.60
19180;DHT22;9722;48.754;8.868;2023-02-12T09:23:44;7.20;92.60
19180;DHT22;9722;48.754;8.868;2023-02-12T09:27:05;7.30;92.40
19180;DHT22;9722;48.754;8.868;2023-02-12T09:30:26;7.50;92.00
19180;DHT22;9722;48.754;8.868;2023-02-12T09:33:46;7.60;91.80
19180;DHT22;9722;48.754;8.868;2023-02-12T09:37:07;7.70;91.50
19180;DHT22;9722;48.754;8.868;2023-02-12T09:40:38;7.80;91.30
19180;DHT22;9722;48.754;8.868;2023-02-12T09:51:48;8.40;90.10
19180;DHT22;9722;48.754;8.868;2023-02-12T09:55:14;8.60;89.50
19180;DHT22;9722;48.754;8.868;2023-02-12T09:58:41;8.80;88.70
19180;DHT22;9722;48.754;8.868;2023-02-12T10:02:11;8.90;87.00
19180;DHT22;9722;48.754;8.868;2023-02-12T10:05:38;8.90;86.00
19180;DHT22;9722;48.754;8.868;2023-02-12T10:09:29;9.00;85.30
19180;DHT22;9722;48.754;8.868;2023-02-12T10:13:04;9.10;84.90
19180;DHT22;9722;48.754;8.868;2023-02-12T10:27:19;9.40;81.10
19180;DHT22;9722;48.754;8.868;2023-02-12T10:30:52;9.40;80.60
19180;DHT22;9722;48.754;8.868;2023-02-12T10:34:18;9.50;79.80
19180;DHT22;9722;48.754;8.868;2023-02-12T10:41:02;9.60;78.60
19180;DHT22;9722;48.754;8.868;2023-02-12T10:44:23;9.70;78.00
19180;DHT22;9722;48.754;8.868;2023-02-12T10:47:45;9.70;77.80
19180;DHT22;9722;48.754;8.868;2023-02-12T10:54:39;9.90;77.10
19180;DHT22;9722;48.754;8.868;2023-02-12T10:58:02;10.00;75.70
19180;DHT22;9722;48.754;8.868;2023-02-12T11:01:28;10.10;75.10
19180;DHT22;9722;48.754;8.868;2023-02-12T11:04:50;10.20;74.70
19180;DHT22;9722;48.754;8.868;2023-02-12T11:08:32;10.20;74.20
19180;DHT22;9722;48.754;8.868;2023-02-12T11:11:52;10.20;73.50
19180;DHT22;9722;48.754;8.868;2023-02-12T11:15:19;10.20;73.20
19180;DHT22;9722;48.754;8.868;2023-02-12T11:18:41;10.30;73.10
19180;DHT22;9722;48.754;8.868;2023-02-12T11:22:19;10.40;72.50
19180;DHT22;9722;48.754;8.868;2023-02-12T11:25:57;10.50;72.00
19180;DHT22;9722;48.754;8.868;2023-02-12T11:29:22;10.60;71.70
19180;DHT22;9722;48.754;8.868;2023-02-12T11:32:43;10.70;71.10
19180;DHT22;9722;48.754;8.868;2023-02-12T11:36:10;10.70;70.80
19180;DHT22;9722;48.754;8.868;2023-02-12T11:39:35;10.70;70.50
19180;DHT22;9722;48.754;8.868;2023-02-12T11:43:02;10.70;70.40
19180;DHT22;9722;48.754;8.868;2023-02-12T11:46:26;10.80;70.30
19180;DHT22;9722;48.754;8.868;2023-02-12T11:49:55;11.00;69.60
19180;DHT22;9722;48.754;8.868;2023-02-12T11:53:27;11.10;69.40
19180;DHT22;9722;48.754;8.868;2023-02-12T11:56:48;11.20;69.00
19180;DHT22;9722;48.754;8.868;2023-02-12T12:00:19;11.40;68.70
19180;DHT22;9722;48.754;8.868;2023-02-12T12:03:52;11.60;68.50
19180;DHT22;9722;48.754;8.868;2023-02-12T12:07:41;11.80;67.80
19180;DHT22;9722;48.754;8.868;2023-02-12T12:14:58;11.80;66.60
19180;DHT22;9722;48.754;8.868;2023-02-12T12:18:57;11.80;67.10
19180;DHT22;9722;48.754;8.868;2023-02-12T12:26:30;11.90;66.70
19180;DHT22;9722;48.754;8.868;2023-02-12T12:30:00;12.10;66.50
19180;DHT22;9722;48.754;8.868;2023-02-12T12:37:16;12.40;65.20
19180;DHT22;9722;48.754;8.868;2023-02-12T12:41:52;12.50;64.90
19180;DHT22;9722;48.754;8.868;2023-02-12T12:44:53;12.60;64.50
19180;DHT22;9722;48.754;8.868;2023-02-12T12:48:47;12.80;64.00
19180;DHT22;9722;48.754;8.868;2023-02-12T12:52:33;13.00;63.30
19180;DHT22;9722;48.754;8.868;2023-02-12T12:56:28;13.10;62.60
19180;DHT22;9722;48.754;8.868;2023-02-12T13:00:02;13.30;62.70
19180;DHT22;9722;48.754;8.868;2023-02-12T13:03:47;13.60;62.20
19180;DHT22;9722;48.754;8.868;2023-02-12T13:07:17;14.30;61.10
19180;DHT22;9722;48.754;8.868;2023-02-12T13:10:54;15.20;59.90
19180;DHT22;9722;48.754;8.868;2023-02-12T13:28:33;18.40;52.60
19180;DHT22;9722;48.754;8.868;2023-02-12T13:31:58;18.00;51.80
19180;DHT22;9722;48.754;8.868;2023-02-12T13:35:23;17.50;52.10
19180;DHT22;9722;48.754;8.868;2023-02-12T13:39:08;17.10;52.70
19180;DHT22;9722;48.754;8.868;2023-02-12T13:43:05;16.90;52.50
19180;DHT22;9722;48.754;8.868;2023-02-12T13:46:43;16.40;52.90
19180;DHT22;9722;48.754;8.868;2023-02-12T13:57:19;20.10;50.10
19180;DHT22;9722;48.754;8.868;2023-02-12T14:04:26;22.20;47.00
19180;DHT22;9722;48.754;8.868;2023-02-12T14:07:53;23.20;45.30
19180;DHT22;9722;48.754;8.868;2023-02-12T14:11:17;23.80;43.90
19180;DHT22;9722;48.754;8.868;2023-02-12T14:18:33;24.20;41.90
19180;DHT22;9722;48.754;8.868;2023-02-12T14:21:54;23.90;41.80
19180;DHT22;9722;48.754;8.868;2023-02-12T14:28:53;23.50;41.70
19180;DHT22;9722;48.754;8.868;2023-02-12T14:39:39;22.70;41.90
19180;DHT22;9722;48.754;8.868;2023-02-12T14:43:02;22.70;42.00
19180;DHT22;9722;48.754;8.868;2023-02-12T14:49:45;22.20;41.80
19180;DHT22;9722;48.754;8.868;2023-02-12T14:53:25;21.80;42.20
19180;DHT22;9722;48.754;8.868;2023-02-12T14:56:48;21.70;42.60
19180;DHT22;9722;48.754;8.868;2023-02-12T15:03:47;21.90;42.80
19180;DHT22;9722;48.754;8.868;2023-02-12T15:07:15;22.00;42.50
19180;DHT22;9722;48.754;8.868;2023-02-12T15:10:51;21.80;42.50
19180;DHT22;9722;48.754;8.868;2023-02-12T15:14:29;21.60;42.50
19180;DHT22;9722;48.754;8.868;2023-02-12T15:18:18;21.50;42.40
19180;DHT22;9722;48.754;8.868;2023-02-12T15:21:40;21.30;42.70
19180;DHT22;9722;48.754;8.868;2023-02-12T15:25:21;21.00;43.10
19180;DHT22;9722;48.754;8.868;2023-02-12T15:28:52;20.60;43.40
19180;DHT22;9722;48.754;8.868;2023-02-12T15:32:21;20.10;43.80
19180;DHT22;9722;48.754;8.868;2023-02-12T15:35:43;19.40;44.30
19180;DHT22;9722;48.754;8.868;2023-02-12T15:39:07;18.10;45.40
19180;DHT22;9722;48.754;8.868;2023-02-12T15:42:31;16.70;47.00
19180;DHT22;9722;48.754;8.868;2023-02-12T15:45:52;15.40;48.60
19180;DHT22;9722;48.754;8.868;2023-02-12T15:49:18;14.30;50.10
19180;DHT22;9722;48.754;8.868;2023-02-12T15:52:43;13.40;51.70
19180;DHT22;9722;48.754;8.868;2023-02-12T15:56:13;12.60;53.00
19180;DHT22;9722;48.754;8.868;2023-02-12T15:59:35;11.90;54.40
19180;DHT22;9722;48.754;8.868;2023-02-12T16:02:55;11.30;55.40
19180;DHT22;9722;48.754;8.868;2023-02-12T16:06:17;10.80;56.40
19180;DHT22;9722;48.754;8.868;2023-02-12T16:09:39;10.30;57.30
19180;DHT22;9722;48.754;8.868;2023-02-12T16:13:00;10.00;58.50
19180;DHT22;9722;48.754;8.868;2023-02-12T16:16:38;9.60;60.00
19180;DHT22;9722;48.754;8.868;2023-02-12T16:20:03;9.30;61.20
19180;DHT22;9722;48.754;8.868;2023-02-12T16:23:24;9.00;62.20
19180;DHT22;9722;48.754;8.868;2023-02-12T16:26:45;8.80;63.00
19180;DHT22;9722;48.754;8.868;2023-02-12T16:30:39;8.60;64.00
19180;DHT22;9722;48.754;8.868;2023-02-12T16:34:03;8.30;65.00
19180;DHT22;9722;48.754;8.868;2023-02-12T16:44:39;7.70;67.40
19180;DHT22;9722;48.754;8.868;2023-02-12T16:48:20;7.60;68.20
19180;DHT22;9722;48.754;8.868;2023-02-12T16:51:43;7.30;68.80
19180;DHT22;9722;48.754;8.868;2023-02-12T16:55:16;7.20;69.60
19180;DHT22;9722;48.754;8.868;2023-02-12T16:58:36;7.00;70.40
19180;DHT22;9722;48.754;8.868;2023-02-12T17:02:01;6.90;71.10
19180;DHT22;9722;48.754;8.868;2023-02-12T17:05:23;6.80;71.80
19180;DHT22;9722;48.754;8.868;2023-02-12T17:08:43;6.60;72.30
19180;DHT22;9722;48.754;8.868;2023-02-12T17:12:04;6.50;73.10
19180;DHT22;9722;48.754;8.868;2023-02-12T17:15:31;6.30;73.60
19180;DHT22;9722;48.754;8.868;2023-02-12T17:18:52;6.10;74.40
19180;DHT22;9722;48.754;8.868;2023-02-12T17:22:21;6.00;74.90
19180;DHT22;9722;48.754;8.868;2023-02-12T17:25:42;5.80;75.50
19180;DHT22;9722;48.754;8.868;2023-02-12T17:29:02;5.60;75.90
19180;DHT22;9722;48.754;8.868;2023-02-12T17:32:24;5.40;76.60
19180;DHT22;9722;48.754;8.868;2023-02-12T17:35:45;5.30;77.50
19180;DHT22;9722;48.754;8.868;2023-02-12T17:39:07;5.20;78.40
19180;DHT22;9722;48.754;8.868;2023-02-12T17:42:28;5.10;79.00
19180;DHT22;9722;48.754;8.868;2023-02-12T17:45:48;4.90;79.90
19180;DHT22;9722;48.754;8.868;2023-02-12T17:49:09;4.80;80.70
19180;DHT22;9722;48.754;8.868;2023-02-12T17:52:29;4.80;81.80
19180;DHT22;9722;48.754;8.868;2023-02-12T17:55:50;4.70;82.30
19180;DHT22;9722;48.754;8.868;2023-02-12T17:59:10;4.70;83.10
19180;DHT22;9722;48.754;8.868;2023-02-12T18:02:31;4.70;83.80
19180;DHT22;9722;48.754;8.868;2023-02-12T18:05:51;4.60;84.50
19180;DHT22;9722;48.754;8.868;2023-02-12T18:09:12;4.50;85.10
19180;DHT22;9722;48.754;8.868;2023-02-12T18:12:33;4.50;85.80
19180;DHT22;9722;48.754;8.868;2023-02-12T18:15:53;4.50;86.50
19180;DHT22;9722;48.754;8.868;2023-02-12T18:19:14;4.40;87.10
19180;DHT22;9722;48.754;8.868;2023-02-12T18:22:35;4.30;87.50
19180;DHT22;9722;48.754;8.868;2023-02-12T18:25:56;4.20;88.10
19180;DHT22;9722;48.754;8.868;2023-02-12T18:29:16;4.10;88.80
19180;DHT22;9722;48.754;8.868;2023-02-12T18:32:37;4.10;89.10
19180;DHT22;9722;48.754;8.868;2023-02-12T18:36:12;3.90;89.00
19180;DHT22;9722;48.754;8.868;2023-02-12T18:39:33;3.80;89.30
19180;DHT22;9722;48.754;8.868;2023-02-12T18:42:53;3.50;89.90
19180;DHT22;9722;48.754;8.868;2023-02-12T18:46:19;3.50;90.50
19180;DHT22;9722;48.754;8.868;2023-02-12T18:49:40;3.40;90.70
19180;DHT22;9722;48.754;8.868;2023-02-12T18:53:01;3.30;91.00
19180;DHT22;9722;48.754;8.868;2023-02-12T18:56:22;3.10;90.90
19180;DHT22;9722;48.754;8.868;2023-02-12T18:59:42;3.00;91.20
19180;DHT22;9722;48.754;8.868;2023-02-12T19:03:03;2.90;91.30
19180;DHT22;9722;48.754;8.868;2023-02-12T19:06:23;2.70;91.60
19180;DHT22;9722;48.754;8.868;2023-02-12T19:09:44;2.50;91.80
19180;DHT22;9722;48.754;8.868;2023-02-12T19:13:05;2.40;92.10
19180;DHT22;9722;48.754;8.868;2023-02-12T19:16:25;2.30;92.40
19180;DHT22;9722;48.754;8.868;2023-02-12T19:19:49;2.20;93.00
19180;DHT22;9722;48.754;8.868;2023-02-12T19:23:10;2.10;93.40
19180;DHT22;9722;48.754;8.868;2023-02-12T19:26:32;2.10;93.90
19180;DHT22;9722;48.754;8.868;2023-02-12T19:29:53;2.00;94.40
19180;DHT22;9722;48.754;8.868;2023-02-12T19:33:14;2.00;94.60
19180;DHT22;9722;48.754;8.868;2023-02-12T19:36:35;2.00;94.90
19180;DHT22;9722;48.754;8.868;2023-02-12T19:39:56;1.90;94.90
19180;DHT22;9722;48.754;8.868;2023-02-12T19:43:16;1.80;95.10
19180;DHT22;9722;48.754;8.868;2023-02-12T19:46:37;1.80;95.40
19180;DHT22;9722;48.754;8.868;2023-02-12T19:49:59;1.80;95.70
19180;DHT22;9722;48.754;8.868;2023-02-12T19:53:20;1.70;95.80
19180;DHT22;9722;48.754;8.868;2023-02-12T19:56:42;1.70;95.80
19180;DHT22;9722;48.754;8.868;2023-02-12T20:00:03;1.60;95.80
19180;DHT22;9722;48.754;8.868;2023-02-12T20:03:24;1.50;95.90
19180;DHT22;9722;48.754;8.868;2023-02-12T20:06:46;1.40;96.00
19180;DHT22;9722;48.754;8.868;2023-02-12T20:10:10;1.40;96.20
19180;DHT22;9722;48.754;8.868;2023-02-12T20:13:31;1.30;96.30
19180;DHT22;9722;48.754;8.868;2023-02-12T20:16:54;1.30;96.60
19180;DHT22;9722;48.754;8.868;2023-02-12T20:20:14;1.30;96.80
19180;DHT22;9722;48.754;8.868;2023-02-12T20:23:35;1.30;97.10
19180;DHT22;9722;48.754;8.868;2023-02-12T20:26:58;1.30;97.40
19180;DHT22;9722;48.754;8.868;2023-02-12T20:30:19;1.20;97.20
19180;DHT22;9722;48.754;8.868;2023-02-12T20:33:40;1.20;97.30
19180;DHT22;9722;48.754;8.868;2023-02-12T20:37:01;1.10;97.30
19180;DHT22;9722;48.754;8.868;2023-02-12T20:40:21;1.00;97.40
19180;DHT22;9722;48.754;8.868;2023-02-12T20:43:41;1.00;97.50
19180;DHT22;9722;48.754;8.868;2023-02-12T20:47:02;0.90;98.00
19180;DHT22;9722;48.754;8.868;2023-02-12T20:50:23;0.90;97.90
19180;DHT22;9722;48.754;8.868;2023-02-12T20:53:44;0.90;98.10
19180;DHT22;9722;48.754;8.868;2023-02-12T20:57:04;0.80;98.20
19180;DHT22;9722;48.754;8.868;2023-02-12T21:00:26;0.80;98.40
19180;DHT22;9722;48.754;8.868;2023-02-12T21:03:48;0.80;98.60
19180;DHT22;9722;48.754;8.868;2023-02-12T21:07:08;0.80;98.70
19180;DHT22;9722;48.754;8.868;2023-02-12T21:10:29;0.80;98.90
19180;DHT22;9722;48.754;8.868;2023-02-12T21:13:54;0.90;99.00
19180;DHT22;9722;48.754;8.868;2023-02-12T21:17:15;0.80;99.00
19180;DHT22;9722;48.754;8.868;2023-02-12T21:20:35;0.80;99.10
19180;DHT22;9722;48.754;8.868;2023-02-12T21:23:57;0.70;99.10
19180;DHT22;9722;48.754;8.868;2023-02-12T21:27:18;0.70;99.10
19180;DHT22;9722;48.754;8.868;2023-02-12T21:30:38;0.60;99.20
19180;DHT22;9722;48.754;8.868;2023-02-12T21:34:00;0.60;99.30
19180;DHT22;9722;48.754;8.868;2023-02-12T21:37:21;0.60;99.50
19180;DHT22;9722;48.754;8.868;2023-02-12T21:40:41;0.50;99.50
19180;DHT22;9722;48.754;8.868;2023-02-12T21:44:13;0.50;99.70
19180;DHT22;9722;48.754;8.868;2023-02-12T21:47:34;0.50;99.80
19180;DHT22;9722;48.754;8.868;2023-02-12T21:50:54;0.40;99.80
19180;DHT22;9722;48.754;8.868;2023-02-12T21:54:15;0.40;99.90
19180;DHT22;9722;48.754;8.868;2023-02-12T21:57:36;0.40;99.90
19180;DHT22;9722;48.754;8.868;2023-02-12T22:01:04;0.30;99.90
19180;DHT22;9722;48.754;8.868;2023-02-12T22:04:25;0.20;99.90
19180;DHT22;9722;48.754;8.868;2023-02-12T22:07:50;0.20;99.90
19180;DHT22;9722;48.754;8.868;2023-02-12T22:11:11;0.20;99.90
19180;DHT22;9722;48.754;8.868;2023-02-12T22:14:32;0.10;99.90
19180;DHT22;9722;48.754;8.868;2023-02-12T22:17:52;0.10;99.90
19180;DHT22;9722;48.754;8.868;2023-02-12T22:21:14;0.10;99.90
19180;DHT22;9722;48.754;8.868;2023-02-12T22:24:35;0.10;99.90
19180;DHT22;9722;48.754;8.868;2023-02-12T22:27:57;0.10;99.90
19180;DHT22;9722;48.754;8.868;2023-02-12T22:31:20;0.10;99.90
19180;DHT22;9722;48.754;8.868;2023-02-12T22:34:41;0.00;99.90
19180;DHT22;9722;48.754;8.868;2023-02-12T22:38:02;0.00;99.90
19180;DHT22;9722;48.754;8.868;2023-02-12T22:41:23;-0.10;99.90
19180;DHT22;9722;48.754;8.868;2023-02-12T22:44:44;-0.10;99.90
19180;DHT22;9722;48.754;8.868;2023-02-12T22:48:05;-0.10;99.90
19180;DHT22;9722;48.754;8.868;2023-02-12T22:51:27;-0.10;99.90
19180;DHT22;9722;48.754;8.868;2023-02-12T22:54:48;-0.20;99.90
19180;DHT22;9722;48.754;8.868;2023-02-12T22:58:09;-0.20;99.90
19180;DHT22;9722;48.754;8.868;2023-02-12T23:01:30;-0.20;99.90
19180;DHT22;9722;48.754;8.868;2023-02-12T23:04:50;-0.20;99.90
19180;DHT22;9722;48.754;8.868;2023-02-12T23:08:11;-0.30;99.90
19180;DHT22;9722;48.754;8.868;2023-02-12T23:11:32;-0.30;99.90
19180;DHT22;9722;48.754;8.868;2023-02-12T23:14:53;-0.30;99.90
19180;DHT22;9722;48.754;8.868;2023-02-12T23:18:14;-0.30;99.90
19180;DHT22;9722;48.754;8.868;2023-02-12T23:21:35;-0.30;99.90
19180;DHT22;9722;48.754;8.868;2023-02-12T23:24:55;-0.40;99.90
19180;DHT22;9722;48.754;8.868;2023-02-12T23:28:16;-0.50;99.90
19180;DHT22;9722;48.754;8.868;2023-02-12T23:31:36;-0.60;99.90
19180;DHT22;9722;48.754;8.868;2023-02-12T23:34:57;-0.60;99.90
19180;DHT22;9722;48.754;8.868;2023-02-12T23:38:18;-0.70;99.90
19180;DHT22;9722;48.754;8.868;2023-02-12T23:41:39;-0.70;99.90
19180;DHT22;9722;48.754;8.868;2023-02-12T23:45:00;-0.80;99.90
19180;DHT22;9722;48.754;8.868;2023-02-12T23:48:20;-0.80;99.90
19180;DHT22;9722;48.754;8.868;2023-02-12T23:51:40;-0.80;99.90
19180;DHT22;9722;48.754;8.868;2023-02-12T23:55:01;-0.80;99.90
19180;DHT22;9722;48.754;8.868;2023-02-12T23:58:22;-0.80;99.90
